sensor_id;sensor_type;location;lat;lon;timestamp;temperature;humidity
15105;DHT22;7653;48.994;9.212;2022-12-07T00:01:30;3.90;65.10
15105;DHT22;7653;48.994;9.212;2022-12-07T00:03:58;3.90;65.60
15105;DHT22;7653;48.994;9.212;2022-12-07T00:06:31;3.80;65.60
15105;DHT22;7653;48.994;9.212;2022-12-07T00:08:57;3.90;66.10
15105;DHT22;7653;48.994;9.212;2022-12-07T00:11:27;3.80;66.80
15105;DHT22;7653;48.994;9.212;2022-12-07T00:13:57;3.80;67.20
15105;DHT22;7653;48.994;9.212;2022-12-07T00:16:26;3.70;67.70
15105;DHT22;7653;48.994;9.212;2022-12-07T00:18:53;3.80;68.10
15105;DHT22;7653;48.994;9.212;2022-12-07T00:21:25;4.00;66.80
15105;DHT22;7653;48.994;9.212;2022-12-07T00:23:52;3.90;65.40
15105;DHT22;7653;48.994;9.212;2022-12-07T00:26:21;3.90;66.40
15105;DHT22;7653;48.994;9.212;2022-12-07T00:28:49;3.80;67.30
15105;DHT22;7653;48.994;9.212;2022-12-07T00:31:17;3.80;68.00
15105;DHT22;7653;48.994;9.212;2022-12-07T00:33:45;3.80;69.70
15105;DHT22;7653;48.994;9.212;2022-12-07T00:36:15;3.90;69.20
15105;DHT22;7653;48.994;9.212;2022-12-07T00:38:42;3.80;68.80
15105;DHT22;7653;48.994;9.212;2022-12-07T00:41:16;3.90;69.20
15105;DHT22;7653;48.994;9.212;2022-12-07T00:43:43;3.80;68.40
15105;DHT22;7653;48.994;9.212;2022-12-07T00:46:14;3.80;69.40
15105;DHT22;7653;48.994;9.212;2022-12-07T00:48:40;3.80;69.70
15105;DHT22;7653;48.994;9.212;2022-12-07T00:51:06;3.80;69.80
15105;DHT22;7653;48.994;9.212;2022-12-07T00:53:37;3.80;70.60
15105;DHT22;7653;48.994;9.212;2022-12-07T00:56:16;3.80;71.00
15105;DHT22;7653;48.994;9.212;2022-12-07T00:58:42;3.90;70.50
15105;DHT22;7653;48.994;9.212;2022-12-07T01:01:10;3.80;70.10
15105;DHT22;7653;48.994;9.212;2022-12-07T01:03:36;3.80;70.70
15105;DHT22;7653;48.994;9.212;2022-12-07T01:06:03;3.80;71.70
15105;DHT22;7653;48.994;9.212;2022-12-07T01:08:29;3.80;71.60
15105;DHT22;7653;48.994;9.212;2022-12-07T01:11:03;3.90;71.30
15105;DHT22;7653;48.994;9.212;2022-12-07T01:13:30;4.00;70.20
15105;DHT22;7653;48.994;9.212;2022-12-07T01:16:01;3.90;69.10
15105;DHT22;7653;48.994;9.212;2022-12-07T01:18:29;3.80;71.30
15105;DHT22;7653;48.994;9.212;2022-12-07T01:21:05;3.90;71.30
15105;DHT22;7653;48.994;9.212;2022-12-07T01:23:32;4.00;70.50
15105;DHT22;7653;48.994;9.212;2022-12-07T01:26:00;3.90;69.80
15105;DHT22;7653;48.994;9.212;2022-12-07T01:28:27;4.10;69.70
15105;DHT22;7653;48.994;9.212;2022-12-07T01:31:13;4.10;69.60
15105;DHT22;7653;48.994;9.212;2022-12-07T01:33:44;4.00;70.40
15105;DHT22;7653;48.994;9.212;2022-12-07T01:38:38;3.80;73.40
15105;DHT22;7653;48.994;9.212;2022-12-07T01:41:04;3.90;73.90
15105;DHT22;7653;48.994;9.212;2022-12-07T01:43:31;3.90;74.00
15105;DHT22;7653;48.994;9.212;2022-12-07T01:45:57;3.80;74.40
15105;DHT22;7653;48.994;9.212;2022-12-07T01:48:41;3.80;74.40
15105;DHT22;7653;48.994;9.212;2022-12-07T01:51:12;3.90;74.50
15105;DHT22;7653;48.994;9.212;2022-12-07T01:53:42;3.80;74.40
15105;DHT22;7653;48.994;9.212;2022-12-07T01:56:10;3.80;74.40
15105;DHT22;7653;48.994;9.212;2022-12-07T01:58:37;3.80;74.40
15105;DHT22;7653;48.994;9.212;2022-12-07T02:01:04;3.80;75.10
15105;DHT22;7653;48.994;9.212;2022-12-07T02:03:48;3.80;76.10
15105;DHT22;7653;48.994;9.212;2022-12-07T02:06:19;3.70;76.90
15105;DHT22;7653;48.994;9.212;2022-12-07T02:08:46;3.70;77.80
15105;DHT22;7653;48.994;9.212;2022-12-07T02:11:12;3.70;78.60
15105;DHT22;7653;48.994;9.212;2022-12-07T02:13:40;3.70;79.40
15105;DHT22;7653;48.994;9.212;2022-12-07T02:21:53;3.60;77.50
15105;DHT22;7653;48.994;9.212;2022-12-07T02:30:03;3.60;80.80
15105;DHT22;7653;48.994;9.212;2022-12-07T02:36:17;3.60;80.80
15105;DHT22;7653;48.994;9.212;2022-12-07T02:39:11;3.60;81.20
15105;DHT22;7653;48.994;9.212;2022-12-07T02:41:48;3.60;79.80
15105;DHT22;7653;48.994;9.212;2022-12-07T02:44:19;3.70;80.10
15105;DHT22;7653;48.994;9.212;2022-12-07T02:47:07;3.70;78.90
15105;DHT22;7653;48.994;9.212;2022-12-07T02:49:36;3.70;79.40
15105;DHT22;7653;48.994;9.212;2022-12-07T02:52:03;3.70;77.80
15105;DHT22;7653;48.994;9.212;2022-12-07T02:54:29;3.70;76.70
15105;DHT22;7653;48.994;9.212;2022-12-07T02:57:07;3.50;76.80
15105;DHT22;7653;48.994;9.212;2022-12-07T03:05:13;3.40;78.70
15105;DHT22;7653;48.994;9.212;2022-12-07T03:19:17;3.20;81.60
15105;DHT22;7653;48.994;9.212;2022-12-07T03:21:47;3.20;82.90
15105;DHT22;7653;48.994;9.212;2022-12-07T03:24:27;3.10;82.90
15105;DHT22;7653;48.994;9.212;2022-12-07T03:27:16;3.20;84.40
15105;DHT22;7653;48.994;9.212;2022-12-07T03:29:53;3.10;84.00
15105;DHT22;7653;48.994;9.212;2022-12-07T03:35:24;3.30;85.70
15105;DHT22;7653;48.994;9.212;2022-12-07T03:43:19;3.20;88.10
15105;DHT22;7653;48.994;9.212;2022-12-07T03:48:42;3.30;90.40
15105;DHT22;7653;48.994;9.212;2022-12-07T03:53:51;3.20;90.80
15105;DHT22;7653;48.994;9.212;2022-12-07T03:56:18;3.20;90.80
15105;DHT22;7653;48.994;9.212;2022-12-07T03:58:45;3.30;90.80
15105;DHT22;7653;48.994;9.212;2022-12-07T04:01:11;3.40;90.90
15105;DHT22;7653;48.994;9.212;2022-12-07T04:03:37;3.30;90.80
15105;DHT22;7653;48.994;9.212;2022-12-07T04:06:03;3.30;90.80
15105;DHT22;7653;48.994;9.212;2022-12-07T04:08:29;3.30;90.80
15105;DHT22;7653;48.994;9.212;2022-12-07T04:10:55;3.40;91.20
15105;DHT22;7653;48.994;9.212;2022-12-07T04:13:21;3.40;90.90
15105;DHT22;7653;48.994;9.212;2022-12-07T04:15:47;3.30;90.60
15105;DHT22;7653;48.994;9.212;2022-12-07T04:18:17;3.20;91.00
15105;DHT22;7653;48.994;9.212;2022-12-07T04:20:46;3.30;90.90
15105;DHT22;7653;48.994;9.212;2022-12-07T04:23:11;3.40;90.90
15105;DHT22;7653;48.994;9.212;2022-12-07T04:25:37;3.20;90.80
15105;DHT22;7653;48.994;9.212;2022-12-07T04:28:03;3.10;91.40
15105;DHT22;7653;48.994;9.212;2022-12-07T04:30:30;3.10;92.30
15105;DHT22;7653;48.994;9.212;2022-12-07T04:32:57;3.30;92.50
15105;DHT22;7653;48.994;9.212;2022-12-07T04:35:23;3.40;92.10
15105;DHT22;7653;48.994;9.212;2022-12-07T04:37:48;3.30;91.50
15105;DHT22;7653;48.994;9.212;2022-12-07T04:40:17;3.20;91.40
15105;DHT22;7653;48.994;9.212;2022-12-07T04:42:45;3.30;91.90
15105;DHT22;7653;48.994;9.212;2022-12-07T04:45:11;3.40;91.40
15105;DHT22;7653;48.994;9.212;2022-12-07T04:47:37;3.40;90.90
15105;DHT22;7653;48.994;9.212;2022-12-07T04:50:04;3.40;90.70
15105;DHT22;7653;48.994;9.212;2022-12-07T04:52:30;3.50;90.40
15105;DHT22;7653;48.994;9.212;2022-12-07T04:55:07;3.40;88.90
15105;DHT22;7653;48.994;9.212;2022-12-07T04:57:33;3.30;88.30
15105;DHT22;7653;48.994;9.212;2022-12-07T05:00:00;3.30;88.70
15105;DHT22;7653;48.994;9.212;2022-12-07T05:02:27;3.30;88.60
15105;DHT22;7653;48.994;9.212;2022-12-07T05:04:53;3.30;88.10
15105;DHT22;7653;48.994;9.212;2022-12-07T05:07:19;3.20;87.60
15105;DHT22;7653;48.994;9.212;2022-12-07T05:09:44;3.20;87.40
15105;DHT22;7653;48.994;9.212;2022-12-07T05:12:10;3.20;87.10
15105;DHT22;7653;48.994;9.212;2022-12-07T05:14:36;3.20;87.20
15105;DHT22;7653;48.994;9.212;2022-12-07T05:17:01;3.10;87.10
15105;DHT22;7653;48.994;9.212;2022-12-07T05:19:27;3.20;88.70
15105;DHT22;7653;48.994;9.212;2022-12-07T05:21:53;3.10;88.20
15105;DHT22;7653;48.994;9.212;2022-12-07T05:24:19;3.10;87.90
15105;DHT22;7653;48.994;9.212;2022-12-07T05:26:45;3.00;88.40
15105;DHT22;7653;48.994;9.212;2022-12-07T05:29:16;3.00;88.50
15105;DHT22;7653;48.994;9.212;2022-12-07T05:32:03;2.70;88.40
15105;DHT22;7653;48.994;9.212;2022-12-07T05:34:33;2.80;90.00
15105;DHT22;7653;48.994;9.212;2022-12-07T05:36:59;2.80;89.60
15105;DHT22;7653;48.994;9.212;2022-12-07T05:39:24;2.80;89.90
15105;DHT22;7653;48.994;9.212;2022-12-07T05:41:50;2.80;90.10
15105;DHT22;7653;48.994;9.212;2022-12-07T05:44:34;2.80;90.00
15105;DHT22;7653;48.994;9.212;2022-12-07T05:47:00;2.80;90.20
15105;DHT22;7653;48.994;9.212;2022-12-07T05:49:28;2.80;90.30
15105;DHT22;7653;48.994;9.212;2022-12-07T05:51:54;2.80;90.30
15105;DHT22;7653;48.994;9.212;2022-12-07T05:54:20;2.70;90.00
15105;DHT22;7653;48.994;9.212;2022-12-07T05:56:46;2.80;90.60
15105;DHT22;7653;48.994;9.212;2022-12-07T05:59:34;2.90;90.70
15105;DHT22;7653;48.994;9.212;2022-12-07T06:02:07;3.00;90.70
15105;DHT22;7653;48.994;9.212;2022-12-07T06:04:52;2.90;90.10
15105;DHT22;7653;48.994;9.212;2022-12-07T06:07:18;2.90;90.00
15105;DHT22;7653;48.994;9.212;2022-12-07T06:12:56;3.00;86.80
15105;DHT22;7653;48.994;9.212;2022-12-07T06:15:21;3.00;83.90
15105;DHT22;7653;48.994;9.212;2022-12-07T06:17:48;3.10;82.90
15105;DHT22;7653;48.994;9.212;2022-12-07T06:20:14;3.00;80.60
15105;DHT22;7653;48.994;9.212;2022-12-07T06:22:40;3.00;81.20
15105;DHT22;7653;48.994;9.212;2022-12-07T06:25:06;3.10;80.50
15105;DHT22;7653;48.994;9.212;2022-12-07T06:27:32;3.20;79.10
15105;DHT22;7653;48.994;9.212;2022-12-07T06:29:59;3.20;78.40
15105;DHT22;7653;48.994;9.212;2022-12-07T06:32:29;3.20;76.60
15105;DHT22;7653;48.994;9.212;2022-12-07T06:34:56;3.10;75.20
15105;DHT22;7653;48.994;9.212;2022-12-07T06:37:21;3.20;75.40
15105;DHT22;7653;48.994;9.212;2022-12-07T06:39:47;3.30;75.20
15105;DHT22;7653;48.994;9.212;2022-12-07T06:42:13;3.30;74.90
15105;DHT22;7653;48.994;9.212;2022-12-07T06:44:38;3.30;74.00
15105;DHT22;7653;48.994;9.212;2022-12-07T06:47:04;3.40;74.10
15105;DHT22;7653;48.994;9.212;2022-12-07T06:50:13;3.40;71.80
15105;DHT22;7653;48.994;9.212;2022-12-07T06:53:02;3.30;69.70
15105;DHT22;7653;48.994;9.212;2022-12-07T06:55:52;3.40;69.30
15105;DHT22;7653;48.994;9.212;2022-12-07T07:17:16;3.40;68.10
15105;DHT22;7653;48.994;9.212;2022-12-07T07:22:58;3.40;69.30
15105;DHT22;7653;48.994;9.212;2022-12-07T07:25:33;3.50;70.40
15105;DHT22;7653;48.994;9.212;2022-12-07T07:27:59;3.30;71.10
15105;DHT22;7653;48.994;9.212;2022-12-07T07:30:25;3.40;73.10
15105;DHT22;7653;48.994;9.212;2022-12-07T07:32:51;3.40;74.10
15105;DHT22;7653;48.994;9.212;2022-12-07T07:38:58;3.40;73.50
15105;DHT22;7653;48.994;9.212;2022-12-07T07:42:41;3.40;74.10
15105;DHT22;7653;48.994;9.212;2022-12-07T07:53:23;3.50;72.80
15105;DHT22;7653;48.994;9.212;2022-12-07T07:56:31;3.40;71.50
15105;DHT22;7653;48.994;9.212;2022-12-07T07:58:56;3.40;72.60
15105;DHT22;7653;48.994;9.212;2022-12-07T08:01:22;3.50;72.20
15105;DHT22;7653;48.994;9.212;2022-12-07T08:03:48;3.60;64.90
15105;DHT22;7653;48.994;9.212;2022-12-07T08:06:14;3.50;63.40
15105;DHT22;7653;48.994;9.212;2022-12-07T08:08:40;3.70;64.90
15105;DHT22;7653;48.994;9.212;2022-12-07T08:11:07;3.60;64.10
15105;DHT22;7653;48.994;9.212;2022-12-07T08:13:33;3.80;64.50
15105;DHT22;7653;48.994;9.212;2022-12-07T08:16:06;3.90;62.60
15105;DHT22;7653;48.994;9.212;2022-12-07T08:18:38;3.90;60.10
15105;DHT22;7653;48.994;9.212;2022-12-07T08:21:04;3.90;55.70
15105;DHT22;7653;48.994;9.212;2022-12-07T08:23:32;4.00;53.80
15105;DHT22;7653;48.994;9.212;2022-12-07T08:26:04;4.00;52.50
15105;DHT22;7653;48.994;9.212;2022-12-07T08:28:30;4.00;50.60
15105;DHT22;7653;48.994;9.212;2022-12-07T08:31:04;4.00;51.60
15105;DHT22;7653;48.994;9.212;2022-12-07T08:33:31;4.10;52.00
15105;DHT22;7653;48.994;9.212;2022-12-07T08:36:02;4.30;51.10
15105;DHT22;7653;48.994;9.212;2022-12-07T08:38:28;4.20;48.40
15105;DHT22;7653;48.994;9.212;2022-12-07T08:40:58;4.30;50.00
15105;DHT22;7653;48.994;9.212;2022-12-07T08:43:24;4.40;51.80
15105;DHT22;7653;48.994;9.212;2022-12-07T08:46:17;4.40;49.30
15105;DHT22;7653;48.994;9.212;2022-12-07T08:48:52;4.40;48.40
15105;DHT22;7653;48.994;9.212;2022-12-07T08:51:19;4.60;47.80
15105;DHT22;7653;48.994;9.212;2022-12-07T08:53:45;4.60;47.80
15105;DHT22;7653;48.994;9.212;2022-12-07T08:56:11;4.60;46.80
15105;DHT22;7653;48.994;9.212;2022-12-07T08:58:38;4.50;46.80
15105;DHT22;7653;48.994;9.212;2022-12-07T09:01:04;4.40;46.70
15105;DHT22;7653;48.994;9.212;2022-12-07T09:03:31;4.50;47.90
15105;DHT22;7653;48.994;9.212;2022-12-07T09:05:57;4.50;48.60
15105;DHT22;7653;48.994;9.212;2022-12-07T09:08:26;4.60;48.20
15105;DHT22;7653;48.994;9.212;2022-12-07T09:10:53;4.70;44.70
15105;DHT22;7653;48.994;9.212;2022-12-07T09:13:19;4.70;44.60
15105;DHT22;7653;48.994;9.212;2022-12-07T09:15:45;4.70;43.70
15105;DHT22;7653;48.994;9.212;2022-12-07T09:18:10;4.70;44.00
15105;DHT22;7653;48.994;9.212;2022-12-07T09:20:36;4.60;44.40
15105;DHT22;7653;48.994;9.212;2022-12-07T09:23:01;4.50;43.60
15105;DHT22;7653;48.994;9.212;2022-12-07T09:25:27;4.50;44.50
15105;DHT22;7653;48.994;9.212;2022-12-07T09:27:57;4.40;45.00
15105;DHT22;7653;48.994;9.212;2022-12-07T09:30:23;4.50;45.70
15105;DHT22;7653;48.994;9.212;2022-12-07T09:32:48;4.40;45.10
15105;DHT22;7653;48.994;9.212;2022-12-07T09:35:14;4.50;44.60
15105;DHT22;7653;48.994;9.212;2022-12-07T09:37:40;4.50;45.40
15105;DHT22;7653;48.994;9.212;2022-12-07T09:40:06;4.50;46.80
15105;DHT22;7653;48.994;9.212;2022-12-07T09:42:38;4.50;45.20
15105;DHT22;7653;48.994;9.212;2022-12-07T09:45:22;4.50;46.10
15105;DHT22;7653;48.994;9.212;2022-12-07T09:47:48;4.60;46.80
15105;DHT22;7653;48.994;9.212;2022-12-07T09:50:19;4.60;45.90
15105;DHT22;7653;48.994;9.212;2022-12-07T09:52:47;4.60;46.80
15105;DHT22;7653;48.994;9.212;2022-12-07T09:55:16;4.60;46.80
15105;DHT22;7653;48.994;9.212;2022-12-07T09:57:45;4.50;47.50
15105;DHT22;7653;48.994;9.212;2022-12-07T10:00:16;4.50;46.80
15105;DHT22;7653;48.994;9.212;2022-12-07T10:02:44;4.60;46.80
15105;DHT22;7653;48.994;9.212;2022-12-07T10:05:15;4.60;46.80
15105;DHT22;7653;48.994;9.212;2022-12-07T10:07:43;4.60;46.80
15105;DHT22;7653;48.994;9.212;2022-12-07T10:10:23;4.60;48.10
15105;DHT22;7653;48.994;9.212;2022-12-07T10:13:22;4.50;48.90
15105;DHT22;7653;48.994;9.212;2022-12-07T10:15:56;4.60;49.20
15105;DHT22;7653;48.994;9.212;2022-12-07T10:18:39;4.60;49.30
15105;DHT22;7653;48.994;9.212;2022-12-07T10:23:58;4.60;51.00
15105;DHT22;7653;48.994;9.212;2022-12-07T10:26:31;4.60;51.60
15105;DHT22;7653;48.994;9.212;2022-12-07T10:32:03;4.60;53.20
15105;DHT22;7653;48.994;9.212;2022-12-07T10:39:53;4.50;54.90
15105;DHT22;7653;48.994;9.212;2022-12-07T10:42:21;4.50;56.30
15105;DHT22;7653;48.994;9.212;2022-12-07T10:44:48;4.50;56.20
15105;DHT22;7653;48.994;9.212;2022-12-07T11:01:13;5.00;54.40
15105;DHT22;7653;48.994;9.212;2022-12-07T11:12:38;5.10;53.70
15105;DHT22;7653;48.994;9.212;2022-12-07T11:15:01;5.10;53.10
15105;DHT22;7653;48.994;9.212;2022-12-07T11:25:18;5.20;51.80
15105;DHT22;7653;48.994;9.212;2022-12-07T11:36:22;5.00;51.80
15105;DHT22;7653;48.994;9.212;2022-12-07T11:48:06;5.00;53.70
15105;DHT22;7653;48.994;9.212;2022-12-07T11:55:43;5.20;52.30
15105;DHT22;7653;48.994;9.212;2022-12-07T12:01:07;5.10;52.00
15105;DHT22;7653;48.994;9.212;2022-12-07T12:03:40;5.20;52.60
15105;DHT22;7653;48.994;9.212;2022-12-07T12:06:07;5.20;52.60
15105;DHT22;7653;48.994;9.212;2022-12-07T12:08:39;5.10;53.00
15105;DHT22;7653;48.994;9.212;2022-12-07T12:14:16;5.10;53.30
15105;DHT22;7653;48.994;9.212;2022-12-07T12:22:46;5.20;52.80
15105;DHT22;7653;48.994;9.212;2022-12-07T12:25:26;5.20;53.10
15105;DHT22;7653;48.994;9.212;2022-12-07T12:27:55;5.20;52.30
15105;DHT22;7653;48.994;9.212;2022-12-07T12:30:37;5.10;52.90
15105;DHT22;7653;48.994;9.212;2022-12-07T12:35:41;5.20;53.00
15105;DHT22;7653;48.994;9.212;2022-12-07T12:40:55;5.20;52.40
15105;DHT22;7653;48.994;9.212;2022-12-07T12:51:45;5.20;52.10
15105;DHT22;7653;48.994;9.212;2022-12-07T12:54:28;5.10;52.10
15105;DHT22;7653;48.994;9.212;2022-12-07T13:02:21;5.20;53.80
15105;DHT22;7653;48.994;9.212;2022-12-07T13:11:28;5.40;51.40
15105;DHT22;7653;48.994;9.212;2022-12-07T13:16:59;5.70;51.80
15105;DHT22;7653;48.994;9.212;2022-12-07T13:19:54;5.90;49.70
15105;DHT22;7653;48.994;9.212;2022-12-07T13:27:55;5.20;51.50
15105;DHT22;7653;48.994;9.212;2022-12-07T13:30:24;5.20;51.90
15105;DHT22;7653;48.994;9.212;2022-12-07T13:32:58;5.50;51.30
15105;DHT22;7653;48.994;9.212;2022-12-07T13:35:36;5.40;50.10
15105;DHT22;7653;48.994;9.212;2022-12-07T13:38:15;5.30;50.70
15105;DHT22;7653;48.994;9.212;2022-12-07T13:40:58;5.30;51.70
15105;DHT22;7653;48.994;9.212;2022-12-07T13:43:24;5.20;51.10
15105;DHT22;7653;48.994;9.212;2022-12-07T13:45:59;5.10;51.90
15105;DHT22;7653;48.994;9.212;2022-12-07T13:51:00;5.20;50.60
15105;DHT22;7653;48.994;9.212;2022-12-07T13:53:27;5.10;50.60
15105;DHT22;7653;48.994;9.212;2022-12-07T13:55:57;5.20;51.20
15105;DHT22;7653;48.994;9.212;2022-12-07T13:58:33;5.30;50.50
15105;DHT22;7653;48.994;9.212;2022-12-07T14:00:59;5.20;51.30
15105;DHT22;7653;48.994;9.212;2022-12-07T14:03:33;5.30;50.60
15105;DHT22;7653;48.994;9.212;2022-12-07T14:06:07;5.20;50.20
15105;DHT22;7653;48.994;9.212;2022-12-07T14:08:33;5.20;50.60
15105;DHT22;7653;48.994;9.212;2022-12-07T14:10:59;5.20;51.70
15105;DHT22;7653;48.994;9.212;2022-12-07T14:16:00;5.20;51.80
15105;DHT22;7653;48.994;9.212;2022-12-07T14:21:17;5.10;51.70
15105;DHT22;7653;48.994;9.212;2022-12-07T14:23:45;5.10;52.10
15105;DHT22;7653;48.994;9.212;2022-12-07T14:26:14;5.20;51.80
15105;DHT22;7653;48.994;9.212;2022-12-07T14:28:42;5.30;52.20
15105;DHT22;7653;48.994;9.212;2022-12-07T14:31:14;5.30;51.90
15105;DHT22;7653;48.994;9.212;2022-12-07T14:33:41;5.20;51.50
15105;DHT22;7653;48.994;9.212;2022-12-07T14:36:10;5.20;52.10
15105;DHT22;7653;48.994;9.212;2022-12-07T14:38:38;5.10;52.10
15105;DHT22;7653;48.994;9.212;2022-12-07T14:41:04;5.10;52.40
15105;DHT22;7653;48.994;9.212;2022-12-07T14:43:50;4.90;53.30
15105;DHT22;7653;48.994;9.212;2022-12-07T14:46:15;4.90;55.20
15105;DHT22;7653;48.994;9.212;2022-12-07T14:48:41;4.90;54.50
15105;DHT22;7653;48.994;9.212;2022-12-07T14:51:08;4.90;54.10
15105;DHT22;7653;48.994;9.212;2022-12-07T14:53:40;4.80;55.00
15105;DHT22;7653;48.994;9.212;2022-12-07T14:56:06;4.60;56.30
15105;DHT22;7653;48.994;9.212;2022-12-07T14:58:31;4.60;56.30
15105;DHT22;7653;48.994;9.212;2022-12-07T15:00:58;4.60;56.80
15105;DHT22;7653;48.994;9.212;2022-12-07T15:03:24;4.50;57.70
15105;DHT22;7653;48.994;9.212;2022-12-07T15:05:49;4.40;58.40
15105;DHT22;7653;48.994;9.212;2022-12-07T15:08:16;4.40;59.50
15105;DHT22;7653;48.994;9.212;2022-12-07T15:10:42;4.40;59.30
15105;DHT22;7653;48.994;9.212;2022-12-07T15:13:08;4.40;60.00
15105;DHT22;7653;48.994;9.212;2022-12-07T15:15:53;4.40;60.20
15105;DHT22;7653;48.994;9.212;2022-12-07T15:18:21;4.50;60.50
15105;DHT22;7653;48.994;9.212;2022-12-07T15:20:47;4.40;61.20
15105;DHT22;7653;48.994;9.212;2022-12-07T15:23:14;4.30;61.50
15105;DHT22;7653;48.994;9.212;2022-12-07T15:28:22;4.30;62.30
15105;DHT22;7653;48.994;9.212;2022-12-07T15:30:48;4.30;63.00
15105;DHT22;7653;48.994;9.212;2022-12-07T15:33:14;4.30;62.80
15105;DHT22;7653;48.994;9.212;2022-12-07T15:35:41;4.30;63.00
15105;DHT22;7653;48.994;9.212;2022-12-07T15:38:07;4.40;63.30
15105;DHT22;7653;48.994;9.212;2022-12-07T15:40:33;4.40;62.50
15105;DHT22;7653;48.994;9.212;2022-12-07T15:43:00;4.40;62.60
15105;DHT22;7653;48.994;9.212;2022-12-07T15:45:26;4.30;63.00
15105;DHT22;7653;48.994;9.212;2022-12-07T15:48:04;4.30;62.90
15105;DHT22;7653;48.994;9.212;2022-12-07T15:50:31;4.30;63.60
15105;DHT22;7653;48.994;9.212;2022-12-07T15:52:56;4.40;63.30
15105;DHT22;7653;48.994;9.212;2022-12-07T15:55:22;4.30;62.80
15105;DHT22;7653;48.994;9.212;2022-12-07T15:57:48;4.30;64.40
15105;DHT22;7653;48.994;9.212;2022-12-07T16:00:16;4.30;64.80
15105;DHT22;7653;48.994;9.212;2022-12-07T16:02:44;4.20;65.40
15105;DHT22;7653;48.994;9.212;2022-12-07T16:05:09;4.20;65.40
15105;DHT22;7653;48.994;9.212;2022-12-07T16:07:35;4.10;65.30
15105;DHT22;7653;48.994;9.212;2022-12-07T16:10:01;4.10;66.50
15105;DHT22;7653;48.994;9.212;2022-12-07T16:12:27;4.10;66.50
15105;DHT22;7653;48.994;9.212;2022-12-07T16:14:56;4.10;66.50
15105;DHT22;7653;48.994;9.212;2022-12-07T16:17:21;4.00;66.20
15105;DHT22;7653;48.994;9.212;2022-12-07T16:19:47;4.10;65.60
15105;DHT22;7653;48.994;9.212;2022-12-07T16:22:13;4.10;66.00
15105;DHT22;7653;48.994;9.212;2022-12-07T16:24:45;4.10;65.30
15105;DHT22;7653;48.994;9.212;2022-12-07T16:27:31;4.10;65.30
15105;DHT22;7653;48.994;9.212;2022-12-07T16:30:02;4.10;65.30
15105;DHT22;7653;48.994;9.212;2022-12-07T16:32:29;4.10;63.40
15105;DHT22;7653;48.994;9.212;2022-12-07T16:34:58;4.10;63.70
15105;DHT22;7653;48.994;9.212;2022-12-07T16:37:25;4.20;62.90
15105;DHT22;7653;48.994;9.212;2022-12-07T16:39:53;4.10;62.30
15105;DHT22;7653;48.994;9.212;2022-12-07T16:42:20;4.10;62.20
15105;DHT22;7653;48.994;9.212;2022-12-07T16:44:59;4.10;61.40
15105;DHT22;7653;48.994;9.212;2022-12-07T16:47:29;4.10;60.80
15105;DHT22;7653;48.994;9.212;2022-12-07T16:49:55;4.10;60.40
15105;DHT22;7653;48.994;9.212;2022-12-07T16:52:21;4.10;61.00
15105;DHT22;7653;48.994;9.212;2022-12-07T16:54:48;4.00;60.70
15105;DHT22;7653;48.994;9.212;2022-12-07T16:57:16;4.00;61.70
15105;DHT22;7653;48.994;9.212;2022-12-07T16:59:42;3.90;63.90
15105;DHT22;7653;48.994;9.212;2022-12-07T17:02:11;4.00;63.50
15105;DHT22;7653;48.994;9.212;2022-12-07T17:04:56;3.90;63.60
15105;DHT22;7653;48.994;9.212;2022-12-07T17:07:22;3.90;63.30
15105;DHT22;7653;48.994;9.212;2022-12-07T17:09:49;3.90;63.00
15105;DHT22;7653;48.994;9.212;2022-12-07T17:12:15;3.90;63.30
15105;DHT22;7653;48.994;9.212;2022-12-07T17:14:42;3.80;63.50
15105;DHT22;7653;48.994;9.212;2022-12-07T17:17:26;3.80;63.90
15105;DHT22;7653;48.994;9.212;2022-12-07T17:19:53;3.90;63.80
15105;DHT22;7653;48.994;9.212;2022-12-07T17:22:19;3.90;63.50
15105;DHT22;7653;48.994;9.212;2022-12-07T17:24:44;4.00;62.70
15105;DHT22;7653;48.994;9.212;2022-12-07T17:27:11;3.90;63.80
15105;DHT22;7653;48.994;9.212;2022-12-07T17:29:37;3.90;63.30
15105;DHT22;7653;48.994;9.212;2022-12-07T17:32:03;3.90;62.60
15105;DHT22;7653;48.994;9.212;2022-12-07T17:34:30;3.90;63.20
15105;DHT22;7653;48.994;9.212;2022-12-07T17:36:56;3.90;63.60
15105;DHT22;7653;48.994;9.212;2022-12-07T17:39:22;3.80;64.30
15105;DHT22;7653;48.994;9.212;2022-12-07T17:41:48;3.80;63.60
15105;DHT22;7653;48.994;9.212;2022-12-07T17:44:36;3.80;64.40
15105;DHT22;7653;48.994;9.212;2022-12-07T17:47:02;3.70;64.90
15105;DHT22;7653;48.994;9.212;2022-12-07T17:49:29;3.70;64.90
15105;DHT22;7653;48.994;9.212;2022-12-07T17:51:57;3.80;65.00
15105;DHT22;7653;48.994;9.212;2022-12-07T17:54:46;3.80;64.10
15105;DHT22;7653;48.994;9.212;2022-12-07T17:57:12;3.80;63.80
15105;DHT22;7653;48.994;9.212;2022-12-07T17:59:40;3.80;63.80
15105;DHT22;7653;48.994;9.212;2022-12-07T18:02:09;3.70;63.70
15105;DHT22;7653;48.994;9.212;2022-12-07T18:04:37;3.80;64.00
15105;DHT22;7653;48.994;9.212;2022-12-07T18:07:03;3.80;63.30
15105;DHT22;7653;48.994;9.212;2022-12-07T18:09:31;3.80;63.80
15105;DHT22;7653;48.994;9.212;2022-12-07T18:11:59;3.80;63.00
15105;DHT22;7653;48.994;9.212;2022-12-07T18:14:29;3.90;63.20
15105;DHT22;7653;48.994;9.212;2022-12-07T18:17:03;3.90;62.90
15105;DHT22;7653;48.994;9.212;2022-12-07T18:19:31;3.80;63.50
15105;DHT22;7653;48.994;9.212;2022-12-07T18:22:02;3.80;63.20
15105;DHT22;7653;48.994;9.212;2022-12-07T18:24:28;3.80;63.70
15105;DHT22;7653;48.994;9.212;2022-12-07T18:26:54;3.80;64.00
15105;DHT22;7653;48.994;9.212;2022-12-07T18:29:20;3.80;63.90
15105;DHT22;7653;48.994;9.212;2022-12-07T18:31:47;3.80;64.00
15105;DHT22;7653;48.994;9.212;2022-12-07T18:34:15;3.80;63.70
15105;DHT22;7653;48.994;9.212;2022-12-07T18:36:44;3.70;64.20
15105;DHT22;7653;48.994;9.212;2022-12-07T18:39:15;3.80;64.20
15105;DHT22;7653;48.994;9.212;2022-12-07T18:41:46;3.80;63.40
15105;DHT22;7653;48.994;9.212;2022-12-07T18:44:12;3.90;62.40
15105;DHT22;7653;48.994;9.212;2022-12-07T18:46:39;3.80;62.80
15105;DHT22;7653;48.994;9.212;2022-12-07T18:49:08;3.70;62.90
15105;DHT22;7653;48.994;9.212;2022-12-07T18:51:38;3.80;63.90
15105;DHT22;7653;48.994;9.212;2022-12-07T18:54:04;3.90;61.60
15105;DHT22;7653;48.994;9.212;2022-12-07T18:56:31;3.90;61.80
15105;DHT22;7653;48.994;9.212;2022-12-07T18:58:59;3.80;61.80
15105;DHT22;7653;48.994;9.212;2022-12-07T19:01:49;3.80;61.30
15105;DHT22;7653;48.994;9.212;2022-12-07T19:04:16;3.70;62.70
15105;DHT22;7653;48.994;9.212;2022-12-07T19:06:46;3.70;63.30
15105;DHT22;7653;48.994;9.212;2022-12-07T19:09:13;3.70;63.20
15105;DHT22;7653;48.994;9.212;2022-12-07T19:11:41;3.80;62.80
15105;DHT22;7653;48.994;9.212;2022-12-07T19:16:54;3.80;61.20
15105;DHT22;7653;48.994;9.212;2022-12-07T19:19:22;3.80;61.00
15105;DHT22;7653;48.994;9.212;2022-12-07T19:21:51;3.90;61.50
15105;DHT22;7653;48.994;9.212;2022-12-07T19:24:17;3.90;61.00
15105;DHT22;7653;48.994;9.212;2022-12-07T19:26:46;4.00;60.40
15105;DHT22;7653;48.994;9.212;2022-12-07T19:29:12;3.90;59.80
15105;DHT22;7653;48.994;9.212;2022-12-07T19:31:38;3.90;59.90
15105;DHT22;7653;48.994;9.212;2022-12-07T19:34:12;3.90;59.80
15105;DHT22;7653;48.994;9.212;2022-12-07T19:36:42;3.90;59.90
15105;DHT22;7653;48.994;9.212;2022-12-07T19:39:09;4.00;59.70
15105;DHT22;7653;48.994;9.212;2022-12-07T19:41:35;3.90;59.40
15105;DHT22;7653;48.994;9.212;2022-12-07T19:44:06;3.90;59.70
15105;DHT22;7653;48.994;9.212;2022-12-07T19:46:34;4.00;59.60
15105;DHT22;7653;48.994;9.212;2022-12-07T19:49:00;4.00;59.70